sensor_id;sensor_type;location;lat;lon;timestamp;temperature;humidity
17968;DHT22;9109;48.050;11.696;2023-02-02T04:47:18;3.60;99.90
17968;DHT22;9109;48.050;11.696;2023-02-02T04:50:20;3.70;99.90
17968;DHT22;9109;48.050;11.696;2023-02-02T04:53:28;3.70;99.90
17968;DHT22;9109;48.050;11.696;2023-02-02T04:56:30;3.70;99.90
17968;DHT22;9109;48.050;11.696;2023-02-02T04:59:32;3.60;99.90
17968;DHT22;9109;48.050;11.696;2023-02-02T05:02:36;3.70;99.90
17968;DHT22;9109;48.050;11.696;2023-02-02T05:08:41;3.70;99.90
17968;DHT22;9109;48.050;11.696;2023-02-02T05:11:43;3.70;99.90
17968;DHT22;9109;48.050;11.696;2023-02-02T05:14:45;3.70;99.90
17968;DHT22;9109;48.050;11.696;2023-02-02T05:17:48;3.70;99.90
17968;DHT22;9109;48.050;11.696;2023-02-02T05:20:50;3.70;99.90
17968;DHT22;9109;48.050;11.696;2023-02-02T05:23:52;3.70;99.90
17968;DHT22;9109;48.050;11.696;2023-02-02T05:26:54;3.70;99.90
17968;DHT22;9109;48.050;11.696;2023-02-02T05:30:00;3.70;99.90
17968;DHT22;9109;48.050;11.696;2023-02-02T05:33:03;3.70;99.90
17968;DHT22;9109;48.050;11.696;2023-02-02T05:36:06;3.70;99.90
17968;DHT22;9109;48.050;11.696;2023-02-02T05:39:08;3.80;99.90
17968;DHT22;9109;48.050;11.696;2023-02-02T05:42:10;3.80;99.90
17968;DHT22;9109;48.050;11.696;2023-02-02T05:45:12;3.70;99.90
17968;DHT22;9109;48.050;11.696;2023-02-02T05:48:15;3.70;99.90
17968;DHT22;9109;48.050;11.696;2023-02-02T05:51:20;3.70;99.90
17968;DHT22;9109;48.050;11.696;2023-02-02T05:54:22;3.70;99.90
17968;DHT22;9109;48.050;11.696;2023-02-02T05:57:24;3.70;99.90
17968;DHT22;9109;48.050;11.696;2023-02-02T06:00:27;3.60;99.90
17968;DHT22;9109;48.050;11.696;2023-02-02T06:03:30;3.60;99.90
17968;DHT22;9109;48.050;11.696;2023-02-02T06:06:32;3.50;99.90
17968;DHT22;9109;48.050;11.696;2023-02-02T06:09:35;3.50;99.90
17968;DHT22;9109;48.050;11.696;2023-02-02T06:12:37;3.50;99.90
17968;DHT22;9109;48.050;11.696;2023-02-02T06:15:38;3.60;99.90
17968;DHT22;9109;48.050;11.696;2023-02-02T06:18:43;3.60;99.90
17968;DHT22;9109;48.050;11.696;2023-02-02T06:21:46;3.60;99.90
17968;DHT22;9109;48.050;11.696;2023-02-02T06:24:50;3.70;99.90
17968;DHT22;9109;48.050;11.696;2023-02-02T06:27:54;3.60;99.90
17968;DHT22;9109;48.050;11.696;2023-02-02T06:31:02;3.60;99.90
17968;DHT22;9109;48.050;11.696;2023-02-02T06:34:06;3.60;99.90
17968;DHT22;9109;48.050;11.696;2023-02-02T06:37:08;3.50;99.90
17968;DHT22;9109;48.050;11.696;2023-02-02T06:40:11;3.60;99.90
17968;DHT22;9109;48.050;11.696;2023-02-02T06:43:13;3.60;99.90
17968;DHT22;9109;48.050;11.696;2023-02-02T06:46:16;3.60;99.90
17968;DHT22;9109;48.050;11.696;2023-02-02T06:49:19;3.60;99.90
17968;DHT22;9109;48.050;11.696;2023-02-02T06:52:21;3.60;99.90
17968;DHT22;9109;48.050;11.696;2023-02-02T06:55:23;3.60;99.90
17968;DHT22;9109;48.050;11.696;2023-02-02T06:58:25;3.70;99.90
17968;DHT22;9109;48.050;11.696;2023-02-02T07:01:27;3.70;99.90
17968;DHT22;9109;48.050;11.696;2023-02-02T07:04:30;3.70;99.90
17968;DHT22;9109;48.050;11.696;2023-02-02T07:07:33;3.70;99.90
17968;DHT22;9109;48.050;11.696;2023-02-02T07:10:35;3.70;99.90
17968;DHT22;9109;48.050;11.696;2023-02-02T07:13:38;3.70;99.90
17968;DHT22;9109;48.050;11.696;2023-02-02T07:16:39;3.70;99.90
17968;DHT22;9109;48.050;11.696;2023-02-02T07:19:43;3.70;99.90
17968;DHT22;9109;48.050;11.696;2023-02-02T07:22:45;3.70;99.90
17968;DHT22;9109;48.050;11.696;2023-02-02T07:25:48;3.70;99.90
17968;DHT22;9109;48.050;11.696;2023-02-02T07:28:51;3.70;99.90
17968;DHT22;9109;48.050;11.696;2023-02-02T07:31:52;3.70;99.90
17968;DHT22;9109;48.050;11.696;2023-02-02T07:34:56;3.70;99.90
17968;DHT22;9109;48.050;11.696;2023-02-02T07:37:58;3.80;99.90
17968;DHT22;9109;48.050;11.696;2023-02-02T07:41:00;3.80;99.90
17968;DHT22;9109;48.050;11.696;2023-02-02T07:44:02;3.80;99.90
17968;DHT22;9109;48.050;11.696;2023-02-02T07:47:05;3.80;99.90
17968;DHT22;9109;48.050;11.696;2023-02-02T07:50:09;3.70;99.90
17968;DHT22;9109;48.050;11.696;2023-02-02T07:53:11;3.80;99.90
17968;DHT22;9109;48.050;11.696;2023-02-02T07:56:15;3.80;99.90
17968;DHT22;9109;48.050;11.696;2023-02-02T07:59:17;3.90;99.90
17968;DHT22;9109;48.050;11.696;2023-02-02T08:02:19;3.80;99.90
17968;DHT22;9109;48.050;11.696;2023-02-02T08:05:22;3.80;99.90
17968;DHT22;9109;48.050;11.696;2023-02-02T08:08:24;3.80;99.90
17968;DHT22;9109;48.050;11.696;2023-02-02T08:11:27;3.80;99.90
17968;DHT22;9109;48.050;11.696;2023-02-02T08:14:29;3.80;99.90
17968;DHT22;9109;48.050;11.696;2023-02-02T08:17:31;3.80;99.90
17968;DHT22;9109;48.050;11.696;2023-02-02T08:20:35;3.80;99.90
17968;DHT22;9109;48.050;11.696;2023-02-02T08:23:38;3.90;99.90
17968;DHT22;9109;48.050;11.696;2023-02-02T08:26:40;3.90;99.90
17968;DHT22;9109;48.050;11.696;2023-02-02T08:29:42;3.90;99.90
17968;DHT22;9109;48.050;11.696;2023-02-02T08:32:44;3.90;99.90
17968;DHT22;9109;48.050;11.696;2023-02-02T08:35:47;3.90;99.90
17968;DHT22;9109;48.050;11.696;2023-02-02T08:38:49;3.90;99.90
17968;DHT22;9109;48.050;11.696;2023-02-02T08:41:53;4.00;99.90
17968;DHT22;9109;48.050;11.696;2023-02-02T08:44:55;3.90;99.90
17968;DHT22;9109;48.050;11.696;2023-02-02T08:47:57;3.90;99.90
17968;DHT22;9109;48.050;11.696;2023-02-02T08:51:01;3.90;99.90
17968;DHT22;9109;48.050;11.696;2023-02-02T08:54:03;4.00;99.90
17968;DHT22;9109;48.050;11.696;2023-02-02T08:57:05;4.00;99.90
17968;DHT22;9109;48.050;11.696;2023-02-02T09:00:08;3.90;99.90
17968;DHT22;9109;48.050;11.696;2023-02-02T09:03:11;3.90;99.90
17968;DHT22;9109;48.050;11.696;2023-02-02T09:06:16;3.90;99.90
17968;DHT22;9109;48.050;11.696;2023-02-02T09:09:18;3.80;99.90
17968;DHT22;9109;48.050;11.696;2023-02-02T09:12:20;3.90;99.90
17968;DHT22;9109;48.050;11.696;2023-02-02T09:15:22;3.90;99.90
17968;DHT22;9109;48.050;11.696;2023-02-02T09:18:24;3.90;99.90
17968;DHT22;9109;48.050;11.696;2023-02-02T09:21:27;3.80;99.90
17968;DHT22;9109;48.050;11.696;2023-02-02T09:24:29;3.80;99.90
17968;DHT22;9109;48.050;11.696;2023-02-02T09:27:36;3.90;99.90
17968;DHT22;9109;48.050;11.696;2023-02-02T09:30:38;3.90;99.90
17968;DHT22;9109;48.050;11.696;2023-02-02T09:33:40;3.90;99.90
17968;DHT22;9109;48.050;11.696;2023-02-02T09:36:43;3.90;99.90
17968;DHT22;9109;48.050;11.696;2023-02-02T09:39:46;3.90;99.90
17968;DHT22;9109;48.050;11.696;2023-02-02T09:42:56;3.90;99.90
17968;DHT22;9109;48.050;11.696;2023-02-02T09:46:06;3.90;99.90
17968;DHT22;9109;48.050;11.696;2023-02-02T09:49:13;4.00;99.90
17968;DHT22;9109;48.050;11.696;2023-02-02T09:52:22;4.00;99.90
17968;DHT22;9109;48.050;11.696;2023-02-02T09:55:31;4.00;99.90
17968;DHT22;9109;48.050;11.696;2023-02-02T09:58:40;4.10;99.90
17968;DHT22;9109;48.050;11.696;2023-02-02T10:01:46;4.10;99.90
17968;DHT22;9109;48.050;11.696;2023-02-02T10:04:50;4.10;99.90
17968;DHT22;9109;48.050;11.696;2023-02-02T10:07:58;4.20;99.90
17968;DHT22;9109;48.050;11.696;2023-02-02T10:11:14;4.10;99.90
17968;DHT22;9109;48.050;11.696;2023-02-02T10:14:21;4.10;99.90
17968;DHT22;9109;48.050;11.696;2023-02-02T10:17:39;4.10;99.90
17968;DHT22;9109;48.050;11.696;2023-02-02T10:20:47;4.10;99.90
17968;DHT22;9109;48.050;11.696;2023-02-02T10:23:52;4.10;99.90
17968;DHT22;9109;48.050;11.696;2023-02-02T10:26:58;4.20;99.90
17968;DHT22;9109;48.050;11.696;2023-02-02T10:30:08;4.20;99.90
17968;DHT22;9109;48.050;11.696;2023-02-02T10:33:19;4.20;99.90
17968;DHT22;9109;48.050;11.696;2023-02-02T10:36:26;4.20;99.90
17968;DHT22;9109;48.050;11.696;2023-02-02T10:39:40;4.30;99.90
17968;DHT22;9109;48.050;11.696;2023-02-02T10:42:57;4.20;99.90
17968;DHT22;9109;48.050;11.696;2023-02-02T10:46:23;4.20;99.90
17968;DHT22;9109;48.050;11.696;2023-02-02T10:49:28;4.20;99.90
17968;DHT22;9109;48.050;11.696;2023-02-02T10:52:33;4.20;99.90
17968;DHT22;9109;48.050;11.696;2023-02-02T10:55:41;4.20;99.90
17968;DHT22;9109;48.050;11.696;2023-02-02T10:58:50;4.20;99.90
17968;DHT22;9109;48.050;11.696;2023-02-02T11:01:54;4.30;99.90
17968;DHT22;9109;48.050;11.696;2023-02-02T11:04:56;4.30;99.90
17968;DHT22;9109;48.050;11.696;2023-02-02T11:08:01;4.30;99.90
17968;DHT22;9109;48.050;11.696;2023-02-02T11:11:11;4.40;99.90
17968;DHT22;9109;48.050;11.696;2023-02-02T11:14:16;4.40;99.90
17968;DHT22;9109;48.050;11.696;2023-02-02T11:17:23;4.50;99.90
17968;DHT22;9109;48.050;11.696;2023-02-02T11:20:31;4.50;99.90
17968;DHT22;9109;48.050;11.696;2023-02-02T11:23:33;4.60;99.90
17968;DHT22;9109;48.050;11.696;2023-02-02T11:26:45;4.60;99.90
17968;DHT22;9109;48.050;11.696;2023-02-02T11:29:50;4.60;99.90
17968;DHT22;9109;48.050;11.696;2023-02-02T11:32:53;4.70;99.90
17968;DHT22;9109;48.050;11.696;2023-02-02T11:35:57;4.60;99.90
17968;DHT22;9109;48.050;11.696;2023-02-02T11:39:14;4.70;99.90
17968;DHT22;9109;48.050;11.696;2023-02-02T11:42:19;4.70;99.90
17968;DHT22;9109;48.050;11.696;2023-02-02T11:45:28;4.80;99.90
17968;DHT22;9109;48.050;11.696;2023-02-02T11:48:33;4.70;99.90
17968;DHT22;9109;48.050;11.696;2023-02-02T11:51:36;4.70;99.90
17968;DHT22;9109;48.050;11.696;2023-02-02T11:54:38;4.70;99.90
17968;DHT22;9109;48.050;11.696;2023-02-02T11:58:20;4.60;99.90
17968;DHT22;9109;48.050;11.696;2023-02-02T12:01:29;4.60;99.90
17968;DHT22;9109;48.050;11.696;2023-02-02T12:04:31;4.70;99.90
17968;DHT22;9109;48.050;11.696;2023-02-02T12:07:33;4.60;99.90
17968;DHT22;9109;48.050;11.696;2023-02-02T12:10:39;4.70;99.90
17968;DHT22;9109;48.050;11.696;2023-02-02T12:13:57;4.80;99.90
17968;DHT22;9109;48.050;11.696;2023-02-02T12:17:23;4.80;99.90
17968;DHT22;9109;48.050;11.696;2023-02-02T12:20:34;4.80;99.90
17968;DHT22;9109;48.050;11.696;2023-02-02T12:23:53;4.80;99.90
17968;DHT22;9109;48.050;11.696;2023-02-02T12:27:10;4.70;99.90
17968;DHT22;9109;48.050;11.696;2023-02-02T12:30:27;4.80;99.90
17968;DHT22;9109;48.050;11.696;2023-02-02T12:33:40;4.70;99.90
17968;DHT22;9109;48.050;11.696;2023-02-02T12:36:49;4.60;99.90
17968;DHT22;9109;48.050;11.696;2023-02-02T12:40:05;4.60;99.90
17968;DHT22;9109;48.050;11.696;2023-02-02T12:43:25;4.60;99.90
17968;DHT22;9109;48.050;11.696;2023-02-02T12:46:57;4.60;99.90
17968;DHT22;9109;48.050;11.696;2023-02-02T12:50:14;4.60;99.90
17968;DHT22;9109;48.050;11.696;2023-02-02T12:53:32;4.60;99.90
17968;DHT22;9109;48.050;11.696;2023-02-02T12:56:39;4.60;99.90
17968;DHT22;9109;48.050;11.696;2023-02-02T13:00:00;4.60;99.90
17968;DHT22;9109;48.050;11.696;2023-02-02T13:03:20;4.50;99.90
17968;DHT22;9109;48.050;11.696;2023-02-02T13:06:43;4.50;99.90
17968;DHT22;9109;48.050;11.696;2023-02-02T13:09:57;4.40;99.90
17968;DHT22;9109;48.050;11.696;2023-02-02T13:13:02;4.40;99.90
17968;DHT22;9109;48.050;11.696;2023-02-02T13:16:07;4.40;99.90
17968;DHT22;9109;48.050;11.696;2023-02-02T13:22:55;4.50;99.90
17968;DHT22;9109;48.050;11.696;2023-02-02T13:26:01;4.50;99.90
17968;DHT22;9109;48.050;11.696;2023-02-02T13:29:10;4.50;99.90
17968;DHT22;9109;48.050;11.696;2023-02-02T13:32:23;4.40;99.90
17968;DHT22;9109;48.050;11.696;2023-02-02T13:35:30;4.40;99.90
17968;DHT22;9109;48.050;11.696;2023-02-02T13:38:34;4.30;99.90
17968;DHT22;9109;48.050;11.696;2023-02-02T13:41:41;4.30;99.90
17968;DHT22;9109;48.050;11.696;2023-02-02T13:44:48;4.30;99.90
17968;DHT22;9109;48.050;11.696;2023-02-02T13:47:58;4.30;99.90
17968;DHT22;9109;48.050;11.696;2023-02-02T13:55:12;4.30;99.90
17968;DHT22;9109;48.050;11.696;2023-02-02T14:02:15;4.20;99.90
17968;DHT22;9109;48.050;11.696;2023-02-02T14:05:23;4.20;99.90
17968;DHT22;9109;48.050;11.696;2023-02-02T14:08:26;4.10;99.90
17968;DHT22;9109;48.050;11.696;2023-02-02T14:11:32;4.00;99.90
17968;DHT22;9109;48.050;11.696;2023-02-02T14:14:36;4.00;99.90
17968;DHT22;9109;48.050;11.696;2023-02-02T14:17:54;4.00;99.90
17968;DHT22;9109;48.050;11.696;2023-02-02T14:20:56;3.90;99.90
17968;DHT22;9109;48.050;11.696;2023-02-02T14:23:58;4.00;99.90
17968;DHT22;9109;48.050;11.696;2023-02-02T14:30:40;4.10;99.90
17968;DHT22;9109;48.050;11.696;2023-02-02T14:33:42;4.10;99.90
17968;DHT22;9109;48.050;11.696;2023-02-02T14:36:55;4.20;99.90
17968;DHT22;9109;48.050;11.696;2023-02-02T14:40:19;4.20;99.90
17968;DHT22;9109;48.050;11.696;2023-02-02T14:43:33;4.20;99.90
17968;DHT22;9109;48.050;11.696;2023-02-02T14:46:44;4.10;99.90
17968;DHT22;9109;48.050;11.696;2023-02-02T14:49:49;4.00;99.90
17968;DHT22;9109;48.050;11.696;2023-02-02T14:53:00;3.90;99.90
17968;DHT22;9109;48.050;11.696;2023-02-02T14:56:07;3.90;99.90
17968;DHT22;9109;48.050;11.696;2023-02-02T14:59:16;4.00;99.90
17968;DHT22;9109;48.050;11.696;2023-02-02T15:02:23;3.90;99.90
17968;DHT22;9109;48.050;11.696;2023-02-02T15:05:41;4.10;99.90
17968;DHT22;9109;48.050;11.696;2023-02-02T15:08:45;4.20;99.90
17968;DHT22;9109;48.050;11.696;2023-02-02T15:12:15;4.30;99.90
17968;DHT22;9109;48.050;11.696;2023-02-02T15:15:22;4.30;99.90
17968;DHT22;9109;48.050;11.696;2023-02-02T15:18:30;4.40;99.90
17968;DHT22;9109;48.050;11.696;2023-02-02T15:21:35;4.40;99.90
17968;DHT22;9109;48.050;11.696;2023-02-02T15:24:38;4.50;99.90
17968;DHT22;9109;48.050;11.696;2023-02-02T15:27:45;4.60;99.90
17968;DHT22;9109;48.050;11.696;2023-02-02T15:30:55;4.60;99.90
17968;DHT22;9109;48.050;11.696;2023-02-02T15:34:01;4.60;99.90
17968;DHT22;9109;48.050;11.696;2023-02-02T15:37:07;4.50;99.90
17968;DHT22;9109;48.050;11.696;2023-02-02T15:40:14;4.50;99.90
17968;DHT22;9109;48.050;11.696;2023-02-02T15:43:17;4.50;99.90
17968;DHT22;9109;48.050;11.696;2023-02-02T15:46:23;4.50;99.90
17968;DHT22;9109;48.050;11.696;2023-02-02T15:49:29;4.40;99.90
17968;DHT22;9109;48.050;11.696;2023-02-02T15:52:33;4.40;99.90
17968;DHT22;9109;48.050;11.696;2023-02-02T15:55:37;4.50;99.90
17968;DHT22;9109;48.050;11.696;2023-02-02T15:58:39;4.60;99.90
17968;DHT22;9109;48.050;11.696;2023-02-02T16:01:47;4.60;99.90
17968;DHT22;9109;48.050;11.696;2023-02-02T16:04:51;4.50;99.90
17968;DHT22;9109;48.050;11.696;2023-02-02T16:07:53;4.50;99.90
17968;DHT22;9109;48.050;11.696;2023-02-02T16:11:03;4.60;99.90
17968;DHT22;9109;48.050;11.696;2023-02-02T16:14:11;4.50;99.90
17968;DHT22;9109;48.050;11.696;2023-02-02T16:17:21;4.50;99.90
17968;DHT22;9109;48.050;11.696;2023-02-02T16:20:24;4.40;99.90
17968;DHT22;9109;48.050;11.696;2023-02-02T16:23:30;4.30;99.90
17968;DHT22;9109;48.050;11.696;2023-02-02T16:26:34;4.30;99.90
17968;DHT22;9109;48.050;11.696;2023-02-02T16:29:40;4.30;99.90
17968;DHT22;9109;48.050;11.696;2023-02-02T16:32:48;4.30;99.90
17968;DHT22;9109;48.050;11.696;2023-02-02T16:35:50;4.40;99.90
17968;DHT22;9109;48.050;11.696;2023-02-02T16:38:52;4.50;99.90
17968;DHT22;9109;48.050;11.696;2023-02-02T16:42:07;4.40;99.90
17968;DHT22;9109;48.050;11.696;2023-02-02T16:45:30;4.40;99.90
17968;DHT22;9109;48.050;11.696;2023-02-02T16:48:35;4.40;99.90
17968;DHT22;9109;48.050;11.696;2023-02-02T16:51:40;4.40;99.90
17968;DHT22;9109;48.050;11.696;2023-02-02T16:54:51;4.40;99.90
17968;DHT22;9109;48.050;11.696;2023-02-02T16:57:54;4.40;99.90
17968;DHT22;9109;48.050;11.696;2023-02-02T17:00:59;4.40;99.90
17968;DHT22;9109;48.050;11.696;2023-02-02T17:04:04;4.40;99.90
17968;DHT22;9109;48.050;11.696;2023-02-02T17:07:10;4.30;99.90
17968;DHT22;9109;48.050;11.696;2023-02-02T17:10:20;4.40;99.90
17968;DHT22;9109;48.050;11.696;2023-02-02T17:13:39;4.40;99.90
17968;DHT22;9109;48.050;11.696;2023-02-02T17:16:41;4.40;99.90
17968;DHT22;9109;48.050;11.696;2023-02-02T17:19:44;4.50;99.90
17968;DHT22;9109;48.050;11.696;2023-02-02T17:22:49;4.30;99.90
17968;DHT22;9109;48.050;11.696;2023-02-02T17:25:51;4.30;99.90
17968;DHT22;9109;48.050;11.696;2023-02-02T17:28:54;4.40;99.90
17968;DHT22;9109;48.050;11.696;2023-02-02T17:31:59;4.40;99.90
17968;DHT22;9109;48.050;11.696;2023-02-02T17:35:11;4.40;99.90
17968;DHT22;9109;48.050;11.696;2023-02-02T17:38:14;4.30;99.90
17968;DHT22;9109;48.050;11.696;2023-02-02T17:41:16;4.40;99.90
17968;DHT22;9109;48.050;11.696;2023-02-02T17:44:18;4.40;99.90
17968;DHT22;9109;48.050;11.696;2023-02-02T17:47:23;4.40;99.90
17968;DHT22;9109;48.050;11.696;2023-02-02T17:50:29;4.40;99.90
17968;DHT22;9109;48.050;11.696;2023-02-02T17:53:31;4.40;99.90
17968;DHT22;9109;48.050;11.696;2023-02-02T17:56:33;4.40;99.90
17968;DHT22;9109;48.050;11.696;2023-02-02T17:59:35;4.40;99.90
17968;DHT22;9109;48.050;11.696;2023-02-02T18:02:37;4.40;99.90
17968;DHT22;9109;48.050;11.696;2023-02-02T18:05:40;4.40;99.90
17968;DHT22;9109;48.050;11.696;2023-02-02T18:08:42;4.40;99.90
17968;DHT22;9109;48.050;11.696;2023-02-02T18:11:45;4.40;99.90
17968;DHT22;9109;48.050;11.696;2023-02-02T18:14:49;4.40;99.90
17968;DHT22;9109;48.050;11.696;2023-02-02T18:17:51;4.40;99.90
17968;DHT22;9109;48.050;11.696;2023-02-02T18:20:54;4.40;99.90
17968;DHT22;9109;48.050;11.696;2023-02-02T18:23:56;4.40;99.90
17968;DHT22;9109;48.050;11.696;2023-02-02T18:26:58;4.40;99.90
17968;DHT22;9109;48.050;11.696;2023-02-02T18:30:00;4.40;99.90
17968;DHT22;9109;48.050;11.696;2023-02-02T18:33:02;4.40;99.90
17968;DHT22;9109;48.050;11.696;2023-02-02T18:36:07;4.40;99.90
17968;DHT22;9109;48.050;11.696;2023-02-02T18:39:11;4.40;99.90
17968;DHT22;9109;48.050;11.696;2023-02-02T18:42:13;4.40;99.90
17968;DHT22;9109;48.050;11.696;2023-02-02T18:45:15;4.50;99.90
17968;DHT22;9109;48.050;11.696;2023-02-02T18:48:17;4.60;99.90
17968;DHT22;9109;48.050;11.696;2023-02-02T18:51:20;4.50;99.90
17968;DHT22;9109;48.050;11.696;2023-02-02T18:54:22;4.50;99.90
17968;DHT22;9109;48.050;11.696;2023-02-02T18:57:24;4.50;99.90
17968;DHT22;9109;48.050;11.696;2023-02-02T19:00:26;4.50;99.90
17968;DHT22;9109;48.050;11.696;2023-02-02T19:03:28;4.50;99.90
17968;DHT22;9109;48.050;11.696;2023-02-02T19:06:31;4.50;99.90
17968;DHT22;9109;48.050;11.696;2023-02-02T19:09:50;4.50;99.90
17968;DHT22;9109;48.050;11.696;2023-02-02T19:12:56;4.50;99.90
17968;DHT22;9109;48.050;11.696;2023-02-02T19:15:59;4.50;99.90
17968;DHT22;9109;48.050;11.696;2023-02-02T19:19:09;4.50;99.90
17968;DHT22;9109;48.050;11.696;2023-02-02T19:22:18;4.60;99.90
17968;DHT22;9109;48.050;11.696;2023-02-02T19:25:20;4.60;99.90
17968;DHT22;9109;48.050;11.696;2023-02-02T19:28:24;4.60;99.90
17968;DHT22;9109;48.050;11.696;2023-02-02T19:31:27;4.60;99.90
17968;DHT22;9109;48.050;11.696;2023-02-02T19:34:29;4.50;99.90
17968;DHT22;9109;48.050;11.696;2023-02-02T19:37:37;4.50;99.90
17968;DHT22;9109;48.050;11.696;2023-02-02T19:40:40;4.50;99.90
17968;DHT22;9109;48.050;11.696;2023-02-02T19:43:42;4.40;99.90
17968;DHT22;9109;48.050;11.696;2023-02-02T19:46:48;4.50;99.90
17968;DHT22;9109;48.050;11.696;2023-02-02T19:49:51;4.50;99.90
17968;DHT22;9109;48.050;11.696;2023-02-02T19:52:55;4.40;99.90
17968;DHT22;9109;48.050;11.696;2023-02-02T19:55:57;4.40;99.90
17968;DHT22;9109;48.050;11.696;2023-02-02T19:58:59;4.30;99.90
17968;DHT22;9109;48.050;11.696;2023-02-02T20:05:39;4.40;99.90
17968;DHT22;9109;48.050;11.696;2023-02-02T20:08:44;4.50;99.90
17968;DHT22;9109;48.050;11.696;2023-02-02T20:11:47;4.50;99.90
17968;DHT22;9109;48.050;11.696;2023-02-02T20:14:50;4.50;99.90
17968;DHT22;9109;48.050;11.696;2023-02-02T20:17:54;4.50;99.90
17968;DHT22;9109;48.050;11.696;2023-02-02T20:20:56;4.40;99.90
17968;DHT22;9109;48.050;11.696;2023-02-02T20:23:59;4.50;99.90
17968;DHT22;9109;48.050;11.696;2023-02-02T20:27:07;4.40;99.90
17968;DHT22;9109;48.050;11.696;2023-02-02T20:30:19;4.40;99.90
17968;DHT22;9109;48.050;11.696;2023-02-02T20:33:23;4.40;99.90
17968;DHT22;9109;48.050;11.696;2023-02-02T20:36:35;4.30;99.90
17968;DHT22;9109;48.050;11.696;2023-02-02T20:39:41;4.30;99.90
17968;DHT22;9109;48.050;11.696;2023-02-02T20:42:47;4.30;99.90
17968;DHT22;9109;48.050;11.696;2023-02-02T20:45:49;4.40;99.90
17968;DHT22;9109;48.050;11.696;2023-02-02T20:48:51;4.40;99.90
17968;DHT22;9109;48.050;11.696;2023-02-02T20:51:54;4.40;99.90
17968;DHT22;9109;48.050;11.696;2023-02-02T20:54:58;4.30;99.90
17968;DHT22;9109;48.050;11.696;2023-02-02T20:58:00;4.30;99.90
17968;DHT22;9109;48.050;11.696;2023-02-02T21:01:02;4.30;99.90
17968;DHT22;9109;48.050;11.696;2023-02-02T21:04:05;4.30;99.90
17968;DHT22;9109;48.050;11.696;2023-02-02T21:07:07;4.20;99.90
17968;DHT22;9109;48.050;11.696;2023-02-02T21:10:10;4.20;99.90
17968;DHT22;9109;48.050;11.696;2023-02-02T21:13:12;4.30;99.90
17968;DHT22;9109;48.050;11.696;2023-02-02T21:16:14;4.40;99.90
17968;DHT22;9109;48.050;11.696;2023-02-02T21:19:16;4.40;99.90
17968;DHT22;9109;48.050;11.696;2023-02-02T21:22:18;4.40;99.90
17968;DHT22;9109;48.050;11.696;2023-02-02T21:25:21;4.50;99.90
17968;DHT22;9109;48.050;11.696;2023-02-02T21:28:23;4.50;99.90
17968;DHT22;9109;48.050;11.696;2023-02-02T21:31:25;4.50;99.90
17968;DHT22;9109;48.050;11.696;2023-02-02T21:34:28;4.60;99.90
17968;DHT22;9109;48.050;11.696;2023-02-02T21:37:32;4.50;99.90
17968;DHT22;9109;48.050;11.696;2023-02-02T21:40:36;4.60;99.90
17968;DHT22;9109;48.050;11.696;2023-02-02T21:43:39;4.60;99.90
17968;DHT22;9109;48.050;11.696;2023-02-02T21:46:41;4.50;99.90
17968;DHT22;9109;48.050;11.696;2023-02-02T21:49:43;4.50;99.90
17968;DHT22;9109;48.050;11.696;2023-02-02T21:52:45;4.60;99.90
17968;DHT22;9109;48.050;11.696;2023-02-02T21:55:51;4.60;99.90
17968;DHT22;9109;48.050;11.696;2023-02-02T21:58:56;4.60;99.90
17968;DHT22;9109;48.050;11.696;2023-02-02T22:01:58;4.60;99.90
17968;DHT22;9109;48.050;11.696;2023-02-02T22:05:01;4.60;99.90
17968;DHT22;9109;48.050;11.696;2023-02-02T22:08:18;4.60;99.90
17968;DHT22;9109;48.050;11.696;2023-02-02T22:11:25;4.60;99.90
17968;DHT22;9109;48.050;11.696;2023-02-02T22:14:35;4.50;99.90
17968;DHT22;9109;48.050;11.696;2023-02-02T22:17:39;4.60;99.90
17968;DHT22;9109;48.050;11.696;2023-02-02T22:20:41;4.50;99.90
17968;DHT22;9109;48.050;11.696;2023-02-02T22:23:46;4.50;99.90
17968;DHT22;9109;48.050;11.696;2023-02-02T22:26:50;4.50;99.90
17968;DHT22;9109;48.050;11.696;2023-02-02T22:29:56;4.50;99.90
17968;DHT22;9109;48.050;11.696;2023-02-02T22:32:59;4.50;99.90
17968;DHT22;9109;48.050;11.696;2023-02-02T22:36:01;4.50;99.90
17968;DHT22;9109;48.050;11.696;2023-02-02T22:39:03;4.50;99.90
17968;DHT22;9109;48.050;11.696;2023-02-02T22:42:07;4.50;99.90
17968;DHT22;9109;48.050;11.696;2023-02-02T22:45:09;4.50;99.90
17968;DHT22;9109;48.050;11.696;2023-02-02T22:48:12;4.50;99.90
17968;DHT22;9109;48.050;11.696;2023-02-02T22:51:14;4.40;99.90
17968;DHT22;9109;48.050;11.696;2023-02-02T22:54:16;4.50;99.90
17968;DHT22;9109;48.050;11.696;2023-02-02T22:57:19;4.50;99.90
17968;DHT22;9109;48.050;11.696;2023-02-02T23:00:23;4.40;99.90
17968;DHT22;9109;48.050;11.696;2023-02-02T23:03:26;4.40;99.90
17968;DHT22;9109;48.050;11.696;2023-02-02T23:06:27;4.40;99.90
17968;DHT22;9109;48.050;11.696;2023-02-02T23:09:29;4.40;99.90
17968;DHT22;9109;48.050;11.696;2023-02-02T23:12:34;4.40;99.90
17968;DHT22;9109;48.050;11.696;2023-02-02T23:15:36;4.50;99.90
17968;DHT22;9109;48.050;11.696;2023-02-02T23:18:37;4.40;99.90
17968;DHT22;9109;48.050;11.696;2023-02-02T23:21:39;4.40;99.90
17968;DHT22;9109;48.050;11.696;2023-02-02T23:24:41;4.40;99.90
17968;DHT22;9109;48.050;11.696;2023-02-02T23:27:45;4.40;99.90
17968;DHT22;9109;48.050;11.696;2023-02-02T23:30:47;4.40;99.90
17968;DHT22;9109;48.050;11.696;2023-02-02T23:33:50;4.50;99.90
17968;DHT22;9109;48.050;11.696;2023-02-02T23:36:52;4.50;99.90
17968;DHT22;9109;48.050;11.696;2023-02-02T23:39:54;4.50;99.90
17968;DHT22;9109;48.050;11.696;2023-02-02T23:42:57;4.40;99.90
17968;DHT22;9109;48.050;11.696;2023-02-02T23:45:59;4.50;99.90
17968;DHT22;9109;48.050;11.696;2023-02-02T23:49:01;4.50;99.90
17968;DHT22;9109;48.050;11.696;2023-02-02T23:52:03;4.50;99.90
17968;DHT22;9109;48.050;11.696;2023-02-02T23:55:07;4.60;99.90
17968;DHT22;9109;48.050;11.696;2023-02-02T23:58:11;4.50;99.90
